Time;durP1;ratioP1;P1;durP2;ratioP2;P2;SDS_P1;SDS_P2;PMS_P1;PMS_P2;Temp;Humidity;BMP_temperature;BMP_pressure;BME280_temperature;BME280_humidity;BME280_pressure;Samples;Min_cycle;Max_cycle;Signal;HPM_P1;HPM_P2
2022/09/23 00:00:23;;;;;;;10.38;8.57;;;;;;;5.03;100.00;101224.81;4923564;29;20035;-76
2022/09/23 00:02:50;;;;;;;9.43;7.93;;;;;;;5.08;100.00;101232.78;4925221;29;20066;-77
2022/09/23 00:05:16;;;;;;;8.45;6.93;;;;;;;5.10;100.00;101225.84;4924535;29;20036;-77
2022/09/23 00:07:41;;;;;;;7.55;6.75;;;;;;;5.06;100.00;101221.41;4925173;29;20047;-77
2022/09/23 00:10:07;;;;;;;8.20;6.78;;;;;;;5.02;100.00;101222.16;4927890;29;20032;-77
2022/09/23 00:12:33;;;;;;;10.32;8.35;;;;;;;4.96;100.00;101211.53;4929710;29;20039;-77
2022/09/23 00:14:58;;;;;;;7.78;6.97;;;;;;;4.89;100.00;101215.69;4923448;29;20047;-77
2022/09/23 00:17:23;;;;;;;11.05;8.63;;;;;;;4.86;100.00;101217.34;4926411;29;20402;-77
2022/09/23 00:19:49;;;;;;;11.18;8.45;;;;;;;4.81;100.00;101214.59;4944929;29;20082;-77
2022/09/23 00:22:15;;;;;;;8.80;7.68;;;;;;;4.77;100.00;101212.75;4931204;29;20028;-77
2022/09/23 00:24:40;;;;;;;8.02;7.22;;;;;;;4.72;100.00;101215.22;4924433;29;20457;-77
2022/09/23 00:27:06;;;;;;;9.98;7.63;;;;;;;4.73;100.00;101218.72;4926064;29;20122;-76
2022/09/23 00:29:31;;;;;;;8.85;6.80;;;;;;;4.72;100.00;101215.22;4923350;29;20534;-76
2022/09/23 00:31:57;;;;;;;14.65;8.07;;;;;;;4.70;100.00;101218.63;4923108;29;20040;-76
2022/09/23 00:34:22;;;;;;;9.38;7.88;;;;;;;4.60;100.00;101214.88;4925709;29;20062;-77
2022/09/23 00:36:48;;;;;;;7.70;7.00;;;;;;;4.62;100.00;101218.41;4924323;29;20031;-77
2022/09/23 00:39:13;;;;;;;10.30;6.75;;;;;;;4.63;100.00;101220.19;4924436;29;20095;-77
2022/09/23 00:41:38;;;;;;;8.55;7.47;;;;;;;4.54;100.00;101209.47;4925262;29;20069;-77
2022/09/23 00:44:41;;;;;;;7.40;6.22;;;;;;;4.46;100.00;101206.63;4923193;29;20043;-76
2022/09/23 00:47:16;;;;;;;;;;;;;;;4.47;100.00;101207.50;4938738;29;20068;-76
2022/09/23 00:49:44;;;;;;;10.23;7.22;;;;;;;4.48;100.00;101204.03;4925656;29;20325;-76
2022/09/23 00:52:14;;;;;;;8.48;7.03;;;;;;;4.51;100.00;101199.81;4928866;29;20055;-76
2022/09/23 00:54:41;;;;;;;10.27;7.25;;;;;;;4.54;100.00;101199.00;4943062;29;20055;-76
2022/09/23 00:57:07;;;;;;;8.18;6.63;;;;;;;4.52;100.00;101195.47;4924274;29;20119;-76
2022/09/23 00:59:33;;;;;;;7.55;6.10;;;;;;;4.50;100.00;101195.41;4925339;29;20131;-76
2022/09/23 01:02:01;;;;;;;7.65;6.68;;;;;;;4.43;100.00;101200.41;4921341;29;20131;-76
2022/09/23 01:04:29;;;;;;;6.85;6.20;;;;;;;4.34;100.00;101201.91;4923227;29;20554;-76
2022/09/23 01:06:54;;;;;;;7.38;6.55;;;;;;;4.32;100.00;101197.47;4925200;29;20439;-76
2022/09/23 01:09:21;;;;;;;11.25;7.07;;;;;;;4.29;100.00;101193.03;4924467;29;20031;-76
2022/09/23 01:12:03;;;;;;;7.72;6.65;;;;;;;4.29;100.00;101190.44;4923330;29;20040;-76
2022/09/23 01:14:58;;;;;;;8.73;7.83;;;;;;;4.24;100.00;101194.63;4924383;29;20040;-77
2022/09/23 01:17:48;;;;;;;7.57;6.40;;;;;;;4.22;100.00;101190.19;4917593;29;20080;-76
2022/09/23 01:20:32;;;;;;;8.50;7.30;;;;;;;4.23;100.00;101192.88;4930152;29;20042;-76
2022/09/23 01:23:19;;;;;;;8.38;7.28;;;;;;;4.28;100.00;101186.06;4925962;29;20074;-76
2022/09/23 01:26:12;;;;;;;224.70;18.85;;;;;;;4.29;100.00;101182.59;4924084;29;20036;-76
2022/09/23 01:28:37;;;;;;;;;;;;;;;4.27;100.00;101179.06;4928007;29;20114;-76
2022/09/23 01:31:23;;;;;;;13.32;6.22;;;;;;;4.20;100.00;101174.50;4940762;29;19919;-77
2022/09/23 01:34:09;;;;;;;8.20;6.15;;;;;;;4.11;100.00;101168.97;4934841;29;20043;-76
2022/09/23 01:36:42;;;;;;;9.95;6.55;;;;;;;4.05;100.00;101166.19;4924127;29;20554;-76
2022/09/23 01:39:32;;;;;;;7.95;6.47;;;;;;;4.07;100.00;101159.28;4922786;29;20044;-76
2022/09/23 01:42:25;;;;;;;9.07;6.60;;;;;;;4.09;100.00;101162.84;4925559;29;20062;-76
2022/09/23 01:45:25;;;;;;;10.05;8.25;;;;;;;4.12;100.00;101163.81;4919906;29;20052;-76
2022/09/23 01:48:00;;;;;;;10.88;7.60;;;;;;;4.17;100.00;101157.00;4923837;29;20048;-76
2022/09/23 01:53:20;;;;;;;8.57;6.90;;;;;;;4.22;100.00;101151.91;4925406;29;20039;-76
2022/09/23 01:55:51;;;;;;;10.10;6.93;;;;;;;4.27;100.00;101155.56;4925570;29;20044;-76
2022/09/23 01:58:28;;;;;;;8.20;7.40;;;;;;;4.29;100.00;101151.22;4927111;29;20047;-76
2022/09/23 02:01:03;;;;;;;8.50;5.95;;;;;;;4.22;100.00;101151.00;4926379;29;20793;-76
2022/09/23 02:03:35;;;;;;;6.70;6.03;;;;;;;4.13;100.00;101146.41;4925640;29;20047;-76
2022/09/23 02:06:06;;;;;;;8.73;6.20;;;;;;;4.07;100.00;101143.63;4935320;29;20505;-76
2022/09/23 02:08:37;;;;;;;8.05;6.25;;;;;;;3.99;100.00;101145.13;4926781;29;20047;-76
2022/09/23 02:11:09;;;;;;;7.32;6.10;;;;;;;3.87;100.00;101141.25;4941231;29;20043;-75
2022/09/23 02:13:49;;;;;;;7.95;5.40;;;;;;;3.84;100.00;101135.06;4926059;29;20040;-76
2022/09/23 02:16:43;;;;;;;8.05;5.70;;;;;;;3.85;100.00;101127.31;4925784;29;20095;-76
2022/09/23 02:19:15;;;;;;;7.88;6.00;;;;;;;3.83;100.00;101146.38;4928314;29;20094;-76
2022/09/23 02:21:47;;;;;;;7.43;5.70;;;;;;;3.80;100.00;101139.34;4930267;29;20466;-76
2022/09/23 02:24:19;;;;;;;6.57;4.75;;;;;;;3.75;100.00;101138.31;4939591;29;20036;-76
2022/09/23 02:26:57;;;;;;;6.50;5.80;;;;;;;3.71;100.00;101136.41;4925668;29;20047;-75
2022/09/23 02:29:40;;;;;;;6.63;6.00;;;;;;;3.66;100.00;101130.16;4926037;29;20551;-76
2022/09/23 02:32:12;;;;;;;;;;;;;;;3.66;100.00;101133.66;4932356;29;20036;-76
2022/09/23 02:34:51;;;;;;;11.60;6.20;;;;;;;3.70;100.00;101129.44;4925324;29;20382;-75
2022/09/23 02:37:33;;;;;;;6.68;5.68;;;;;;;3.70;100.00;101127.69;4926846;29;20044;-76
2022/09/23 02:40:12;;;;;;;8.43;6.60;;;;;;;3.65;100.00;101120.56;4925986;29;20051;-76
2022/09/23 02:43:07;;;;;;;7.80;5.60;;;;;;;3.63;100.00;101119.63;4925153;29;20043;-76
2022/09/23 02:45:34;;;;;;;6.85;6.22;;;;;;;3.58;100.00;101122.09;4924469;29;20031;-76
2022/09/23 02:48:11;;;;;;;7.95;6.53;;;;;;;3.59;100.00;101118.66;4925863;29;20088;-75
2022/09/23 02:50:37;;;;;;;8.38;5.95;;;;;;;3.60;100.00;101122.16;4925243;29;20036;-76
2022/09/23 02:53:02;;;;;;;9.38;6.78;;;;;;;3.57;100.00;101124.66;4930839;29;20047;-76
2022/09/23 02:55:31;;;;;;;7.18;6.28;;;;;;;3.55;100.00;101123.72;4927128;29;20075;-75
2022/09/23 02:58:01;;;;;;;7.25;6.05;;;;;;;3.45;100.00;101122.53;4926410;29;20035;-75
2022/09/23 03:00:45;;;;;;;7.75;6.88;;;;;;;3.45;100.00;101122.53;4934071;29;20491;-76
2022/09/23 03:03:28;;;;;;;6.65;5.95;;;;;;;3.44;100.00;101121.66;4926555;29;20036;-76
2022/09/23 03:05:57;;;;;;;9.00;6.35;;;;;;;3.41;100.00;101118.97;4924329;29;20043;-76
2022/09/23 03:08:52;;;;;;;8.95;6.78;;;;;;;3.32;100.00;101117.75;4932531;29;20071;-76
2022/09/23 03:11:20;;;;;;;9.35;5.90;;;;;;;3.20;100.00;101113.94;4922890;29;20032;-76
2022/09/23 03:14:24;;;;;;;8.13;6.88;;;;;;;3.22;100.00;101112.25;4927092;29;20083;-76
2022/09/23 03:17:00;;;;;;;7.47;6.45;;;;;;;3.19;100.00;101106.91;4926669;29;20491;-76
2022/09/23 03:19:42;;;;;;;6.60;5.90;;;;;;;3.21;100.00;101104.38;4924648;29;20405;-76
2022/09/23 03:22:26;;;;;;;11.48;6.18;;;;;;;3.19;100.00;101100.81;4931210;29;20067;-75
2022/09/23 03:24:54;;;;;;;6.78;5.38;;;;;;;3.21;100.00;101094.81;4926601;29;20027;-76
2022/09/23 03:27:26;;;;;;;7.07;6.38;;;;;;;3.20;100.00;101103.50;4924355;29;20535;-76
2022/09/23 03:29:53;;;;;;;6.53;5.50;;;;;;;3.22;100.00;101100.91;4926413;29;20058;-75
2022/09/23 03:32:23;;;;;;;8.55;6.47;;;;;;;3.21;100.00;101099.16;4931781;29;20051;-76
2022/09/23 03:34:52;;;;;;;17.42;8.55;;;;;;;3.21;100.00;101094.81;4924360;29;20119;-76
2022/09/23 03:37:30;;;;;;;9.15;6.10;;;;;;;3.15;100.00;101099.84;4924476;29;20483;-76
2022/09/23 03:40:19;;;;;;;8.35;6.40;;;;;;;3.15;100.00;101089.41;4924896;29;20072;-76
2022/09/23 03:42:47;;;;;;;7.43;6.15;;;;;;;3.11;100.00;101091.84;4925249;29;20118;-76
2022/09/23 03:45:17;;;;;;;11.13;5.97;;;;;;;3.01;100.00;101091.56;4928597;29;20058;-75
2022/09/23 03:47:43;;;;;;;7.13;6.00;;;;;;;3.00;100.00;101087.16;4928384;29;20127;-76
2022/09/23 03:50:09;;;;;;;7.03;6.32;;;;;;;3.01;100.00;101094.19;4929933;29;20039;-76
2022/09/23 03:52:34;;;;;;;8.23;6.85;;;;;;;3.03;100.00;101092.47;4927064;29;20065;-76
2022/09/23 03:55:00;;;;;;;9.13;7.40;;;;;;;3.06;100.00;101083.88;4926963;29;20388;-76
2022/09/23 03:57:25;;;;;;;8.52;6.32;;;;;;;3.05;100.00;101080.38;4926984;29;20122;-75
2022/09/23 03:59:51;;;;;;;6.90;6.20;;;;;;;3.07;100.00;101075.25;4925207;29;20064;-75
2022/09/23 04:02:18;;;;;;;7.05;6.10;;;;;;;3.06;100.00;101074.31;4926060;29;20040;-76
2022/09/23 04:04:44;;;;;;;10.98;6.55;;;;;;;3.08;100.00;101077.00;4920579;29;20570;-75
2022/09/23 04:07:10;;;;;;;9.20;6.55;;;;;;;3.07;100.00;101068.28;4925707;29;20068;-76
2022/09/23 04:09:35;;;;;;;6.78;6.03;;;;;;;3.05;100.00;101076.91;4930308;29;20063;-75
2022/09/23 04:12:02;;;;;;;6.47;5.78;;;;;;;3.01;100.00;101075.00;4928285;29;20074;-75
2022/09/23 04:14:28;;;;;;;7.53;6.57;;;;;;;2.99;100.00;101074.97;4926327;29;20069;-75
2022/09/23 04:16:53;;;;;;;12.00;8.00;;;;;;;3.01;100.00;101070.72;4923949;29;20032;-75
2022/09/23 04:19:18;;;;;;;16.63;12.50;;;;;;;3.04;100.00;101069.94;4924770;29;20047;-75
2022/09/23 04:21:44;;;;;;;10.82;8.38;;;;;;;3.06;100.00;101070.84;4927593;29;20051;-75
2022/09/23 04:24:10;;;;;;;7.03;6.32;;;;;;;3.06;100.00;101071.72;4930707;29;20143;-76
2022/09/23 04:26:37;;;;;;;7.63;5.93;;;;;;;3.02;100.00;101069.84;4930458;29;20483;-75
2022/09/23 04:29:03;;;;;;;8.02;5.93;;;;;;;2.96;100.00;101060.94;4926337;29;20035;-76
2022/09/23 04:31:29;;;;;;;7.50;6.18;;;;;;;2.90;100.00;101065.97;4927206;29;20044;-75
2022/09/23 04:33:55;;;;;;;6.65;5.95;;;;;;;2.88;100.00;101063.28;4930722;29;20759;-75
2022/09/23 04:36:21;;;;;;;7.00;6.20;;;;;;;2.85;100.00;101064.06;4929005;29;20067;-76
2022/09/23 04:38:48;;;;;;;7.45;6.43;;;;;;;2.83;100.00;101065.75;4923561;29;20036;-75
2022/09/23 04:41:14;;;;;;;6.25;5.65;;;;;;;2.82;100.00;101057.88;4930552;29;20118;-75
2022/09/23 04:43:40;;;;;;;7.82;5.68;;;;;;;2.83;100.00;101059.66;4928365;29;20510;-75
2022/09/23 04:46:08;;;;;;;41.50;9.50;;;;;;;2.80;100.00;101060.44;4929703;29;20055;-76
2022/09/23 04:48:34;;;;;;;7.55;6.13;;;;;;;2.76;100.00;101053.34;4938497;29;20547;-75
2022/09/23 04:51:05;;;;;;;6.50;5.85;;;;;;;2.74;100.00;101060.22;4926789;29;20059;-75
2022/09/23 04:53:31;;;;;;;6.50;5.85;;;;;;;2.77;100.00;101055.09;4923115;29;20044;-75
2022/09/23 04:56:05;;;;;;;8.15;6.25;;;;;;;2.77;100.00;101059.44;4927432;29;20074;-76
2022/09/23 04:58:30;;;;;;;6.15;5.55;;;;;;;2.74;100.00;101062.81;4931239;29;20040;-75
2022/09/23 05:00:58;;;;;;;6.22;5.47;;;;;;;2.74;100.00;101065.44;4928756;29;20127;-75
2022/09/23 05:03:24;;;;;;;6.75;6.07;;;;;;;2.74;100.00;101059.34;4925966;29;20152;-76
2022/09/23 05:05:49;;;;;;;5.53;5.00;;;;;;;2.71;100.00;101061.84;4928354;29;20502;-75
2022/09/23 05:08:15;;;;;;;6.97;6.22;;;;;;;2.71;100.00;101057.50;4924261;29;20514;-74
2022/09/23 05:10:41;;;;;;;6.72;6.13;;;;;;;2.69;100.00;101060.91;4923829;29;20051;-76
2022/09/23 05:13:07;;;;;;;8.60;6.93;;;;;;;2.63;100.00;101069.41;4924165;29;20550;-76
2022/09/23 05:15:32;;;;;;;7.80;5.97;;;;;;;2.70;100.00;101055.75;4922579;29;20099;-76
2022/09/23 05:17:58;;;;;;;7.72;7.03;;;;;;;2.73;100.00;101054.97;4925501;29;20048;-76
2022/09/23 05:20:23;;;;;;;7.25;6.50;;;;;;;2.78;100.00;101066.44;4923445;29;20052;-76
2022/09/23 05:22:48;;;;;;;8.02;6.50;;;;;;;2.84;100.00;101056.22;4928980;29;20051;-76
2022/09/23 05:25:14;;;;;;;10.45;6.45;;;;;;;2.91;100.00;101058.19;4924617;29;20133;-76
2022/09/23 05:27:39;;;;;;;11.00;6.53;;;;;;;3.00;100.00;101057.59;4923662;29;20040;-75
2022/09/23 05:30:05;;;;;;;8.55;6.60;;;;;;;3.07;100.00;101060.47;4926685;29;20035;-76
2022/09/23 05:32:30;;;;;;;7.57;6.75;;;;;;;3.16;100.00;101064.22;4931502;29;20036;-76
2022/09/23 05:34:56;;;;;;;7.78;6.72;;;;;;;3.19;100.00;101061.69;4936541;29;20035;-76
2022/09/23 05:37:22;;;;;;;9.43;7.88;;;;;;;3.16;100.00;101056.38;4928237;29;20047;-76
2022/09/23 05:39:47;;;;;;;8.73;7.53;;;;;;;3.19;100.00;101073.00;4927604;29;20542;-76
2022/09/23 05:42:14;;;;;;;8.32;7.13;;;;;;;3.17;100.00;101072.09;4928564;29;20631;-76
2022/09/23 05:44:39;;;;;;;7.80;7.00;;;;;;;3.24;100.00;101065.34;4925018;29;20051;-76
2022/09/23 05:47:04;;;;;;;13.88;9.13;;;;;;;3.39;100.00;101062.34;4929272;29;20102;-76
2022/09/23 05:49:30;;;;;;;12.00;8.05;;;;;;;3.47;100.00;101058.25;4926319;29;20036;-75
2022/09/23 05:51:55;;;;;;;11.35;7.30;;;;;;;3.59;100.00;101057.72;4929497;29;20123;-76
2022/09/23 05:54:21;;;;;;;9.48;7.88;;;;;;;3.73;100.00;101056.44;4927361;29;20171;-76
2022/09/23 05:56:46;;;;;;;9.25;7.80;;;;;;;3.90;100.00;101056.91;4927941;29;20047;-76
2022/09/23 05:59:11;;;;;;;10.18;8.27;;;;;;;4.07;100.00;101060.03;4924804;29;20493;-76
2022/09/23 06:01:37;;;;;;;9.50;8.35;;;;;;;4.19;100.00;101055.13;4928702;29;20055;-76
2022/09/23 06:04:04;;;;;;;11.82;8.15;;;;;;;4.30;100.00;101052.84;4940422;28;20088;-76
2022/09/23 06:06:36;;;;;;;11.93;7.65;;;;;;;4.43;100.00;101052.34;4928927;29;20380;-76
2022/09/23 06:09:02;;;;;;;12.15;8.50;;;;;;;4.56;100.00;101050.94;4928168;29;20050;-76
2022/09/23 06:11:32;;;;;;;9.52;7.85;;;;;;;4.64;100.00;101046.78;4925550;29;20043;-76
2022/09/23 06:14:01;;;;;;;11.25;7.82;;;;;;;4.72;100.00;101047.88;4926083;29;20434;-76
2022/09/23 06:16:29;;;;;;;10.02;7.82;;;;;;;4.87;100.00;101051.72;4929153;29;20086;-76
2022/09/23 06:18:54;;;;;;;11.80;8.02;;;;;;;4.99;100.00;101046.78;4934460;29;20074;-75
2022/09/23 06:21:20;;;;;;;8.98;8.02;;;;;;;5.09;100.00;101046.19;4930542;29;20627;-76
2022/09/23 06:23:45;;;;;;;11.00;8.27;;;;;;;5.21;100.00;101043.88;4927983;29;20462;-76
2022/09/23 06:26:13;;;;;;;12.75;9.20;;;;;;;5.32;100.00;101045.81;4934940;29;20082;-76
2022/09/23 06:28:40;;;;;;;9.50;8.13;;;;;;;5.42;100.00;101045.19;4929272;29;20035;-76
2022/09/23 06:31:09;;;;;;;10.10;7.82;;;;;;;5.56;100.00;101041.16;4927780;29;20036;-76
2022/09/23 06:33:34;;;;;;;11.10;8.90;;;;;;;5.67;100.00;101044.91;4928633;29;20036;-76
2022/09/23 06:36:02;;;;;;;9.35;7.65;;;;;;;5.77;100.00;101045.13;4929179;29;20032;-76
2022/09/23 06:38:29;;;;;;;8.85;7.72;;;;;;;5.86;100.00;101045.28;4942875;29;20035;-76
2022/09/23 06:40:57;;;;;;;9.55;8.57;;;;;;;5.93;100.00;101044.59;4926376;29;20076;-76
2022/09/23 06:43:24;;;;;;;9.80;8.63;;;;;;;6.05;100.00;101046.59;4940579;28;20035;-76
2022/09/23 06:45:53;;;;;;;12.15;9.40;;;;;;;6.20;100.00;101043.41;4939583;28;20036;-76
2022/09/23 06:48:19;;;;;;;12.07;9.18;;;;;;;6.31;100.00;101052.34;4932587;29;20032;-76
2022/09/23 06:50:44;;;;;;;12.00;8.98;;;;;;;6.43;100.00;101049.09;4930991;29;20500;-76
2022/09/23 06:53:11;;;;;;;9.15;8.02;;;;;;;6.54;100.00;101053.69;4946261;28;20095;-76
2022/09/23 06:55:37;;;;;;;10.30;9.20;;;;;;;6.66;100.00;101047.78;4926506;29;20064;-76
2022/09/23 06:58:02;;;;;;;10.70;8.93;;;;;;;6.72;100.00;101044.38;4929626;29;20647;-76
2022/09/23 07:00:28;;;;;;;13.45;8.45;;;;;;;6.84;100.00;101044.63;4930357;29;20131;-76
2022/09/23 07:02:53;;;;;;;9.98;8.40;;;;;;;6.95;100.00;101037.78;4941138;29;20044;-76
2022/09/23 07:05:21;;;;;;;13.15;9.35;;;;;;;7.07;100.00;101039.72;4932351;29;20115;-76
2022/09/23 07:07:46;;;;;;;8.73;7.82;;;;;;;7.17;100.00;101038.13;4925927;29;20123;-76
2022/09/23 07:10:11;;;;;;;8.82;7.93;;;;;;;7.30;100.00;101047.97;4930383;29;20111;-75
2022/09/23 07:12:37;;;;;;;21.17;15.73;;;;;;;7.41;100.00;101042.88;4928086;29;20043;-76
2022/09/23 07:15:03;;;;;;;17.60;13.40;;;;;;;7.55;100.00;101030.84;4924416;29;20046;-76
2022/09/23 07:17:29;;;;;;;18.13;11.70;;;;;;;7.71;100.00;101041.56;4927187;29;20045;-76
2022/09/23 07:19:54;;;;;;;16.50;13.30;;;;;;;7.87;100.00;101040.91;4928491;29;20059;-76
2022/09/23 07:22:21;;;;;;;14.18;10.35;;;;;;;8.06;100.00;101036.75;4932206;29;20086;-76
2022/09/23 07:24:46;;;;;;;15.35;8.48;;;;;;;8.19;100.00;101043.91;4926583;29;20404;-76
2022/09/23 07:27:15;;;;;;;11.82;8.70;;;;;;;8.28;100.00;101046.69;4927624;29;20036;-76
2022/09/23 07:29:41;;;;;;;9.55;8.55;;;;;;;8.40;100.00;101043.31;4926360;29;20126;-76
2022/09/23 07:32:06;;;;;;;15.05;9.20;;;;;;;8.53;99.43;101044.34;4928635;29;20040;-76
2022/09/23 07:34:32;;;;;;;10.13;8.75;;;;;;;8.64;98.48;101047.94;4924465;29;20032;-76
2022/09/23 07:36:57;;;;;;;9.43;8.35;;;;;;;8.75;98.55;101043.69;4932244;29;20047;-76
2022/09/23 07:39:23;;;;;;;11.68;9.15;;;;;;;8.88;98.01;101047.31;4927848;29;20046;-76
2022/09/23 07:41:48;;;;;;;9.68;8.60;;;;;;;8.98;97.61;101043.88;4924178;29;20126;-76
2022/09/23 07:44:13;;;;;;;9.90;8.55;;;;;;;9.13;96.97;101044.88;4925333;29;20135;-76
2022/09/23 07:46:39;;;;;;;15.73;9.55;;;;;;;9.22;96.66;101047.56;4928810;28;20111;-76
2022/09/23 07:49:05;;;;;;;11.27;8.15;;;;;;;9.33;95.23;101045.94;4925907;29;20054;-76
2022/09/23 07:51:36;;;;;;;9.23;8.32;;;;;;;9.39;95.98;101042.44;4935563;29;20043;-76
2022/09/23 07:54:01;;;;;;;9.85;8.85;;;;;;;9.49;95.02;101044.28;4926968;29;20047;-76
2022/09/23 07:56:28;;;;;;;8.80;7.57;;;;;;;9.58;93.91;101044.31;4929217;29;20039;-76
2022/09/23 07:59:02;;;;;;;9.18;8.27;;;;;;;9.70;92.86;101040.00;4925121;29;20055;-76
2022/09/23 08:01:36;;;;;;;10.85;9.13;;;;;;;9.82;91.75;101046.22;4937575;29;20416;-76
2022/09/23 08:04:10;;;;;;;9.65;8.30;;;;;;;9.92;91.40;101047.13;4945667;29;20495;-76
2022/09/23 08:06:39;;;;;;;10.70;8.85;;;;;;;9.87;90.57;101043.59;4925488;29;20511;-76
2022/09/23 08:09:04;;;;;;;9.32;8.35;;;;;;;9.91;91.71;101050.66;4933232;29;20724;-77
2022/09/23 08:11:30;;;;;;;11.15;8.30;;;;;;;10.09;91.29;101050.75;4924800;29;20040;-76
2022/09/23 08:13:56;;;;;;;10.18;8.85;;;;;;;10.27;90.12;101049.97;4926957;29;20048;-76
2022/09/23 08:16:21;;;;;;;10.63;8.98;;;;;;;10.40;90.02;101045.63;4930438;29;20040;-76
2022/09/23 08:18:46;;;;;;;10.85;9.00;;;;;;;10.55;89.21;101047.38;4928302;29;20036;-76
2022/09/23 08:21:17;;;;;;;9.93;8.60;;;;;;;10.71;88.80;101041.25;4927005;29;20039;-76
2022/09/23 08:23:42;;;;;;;8.93;7.00;;;;;;;10.83;86.30;101036.88;4923724;29;20050;-76
2022/09/23 08:26:07;;;;;;;8.15;7.35;;;;;;;10.96;85.77;101038.66;4926301;29;20048;-76
2022/09/23 08:28:33;;;;;;;10.20;6.88;;;;;;;11.09;85.13;101034.25;4924518;29;20040;-76
2022/09/23 08:30:59;;;;;;;8.77;7.70;;;;;;;11.22;84.20;101033.38;4925277;29;20035;-76
2022/09/23 08:33:25;;;;;;;10.00;8.82;;;;;;;11.36;83.72;101026.28;4928751;29;20106;-76
2022/09/23 08:35:51;;;;;;;10.60;8.23;;;;;;;11.38;83.55;101024.53;4923620;29;20476;-76
2022/09/23 08:38:17;;;;;;;8.25;7.40;;;;;;;11.53;83.35;101022.75;4926548;29;20046;-76
2022/09/23 08:40:46;;;;;;;9.35;8.15;;;;;;;11.68;82.38;101025.34;4923695;29;20042;-76
2022/09/23 08:43:24;;;;;;;10.15;9.20;;;;;;;11.73;80.94;101020.03;4924763;29;20450;-76
2022/09/23 08:45:50;;;;;;;9.80;8.13;;;;;;;11.79;81.61;101026.22;4926788;29;20050;-76
2022/09/23 08:48:47;;;;;;;10.43;8.20;;;;;;;11.95;79.37;101028.84;4932798;29;20054;-75
2022/09/23 08:51:16;;;;;;;8.95;8.05;;;;;;;12.03;79.22;101019.09;4931386;29;20035;-76
2022/09/23 08:53:42;;;;;;;7.75;6.95;;;;;;;12.14;79.36;101017.28;4931865;29;20035;-76
2022/09/23 08:56:21;;;;;;;8.23;7.43;;;;;;;12.34;75.99;101005.69;4927206;29;20136;-76
2022/09/23 08:58:59;;;;;;;7.75;7.05;;;;;;;12.53;75.77;101004.69;4925290;29;20494;-75
2022/09/23 09:01:43;;;;;;;11.18;7.97;;;;;;;12.65;75.06;100993.13;4923486;29;20051;-76
2022/09/23 09:04:20;;;;;;;11.35;8.07;;;;;;;12.82;76.07;100995.66;4924910;29;20044;-75
2022/09/23 09:06:56;;;;;;;9.25;7.43;;;;;;;12.71;76.14;100993.97;4928492;29;20043;-76
2022/09/23 09:09:29;;;;;;;9.98;7.47;;;;;;;12.89;76.50;100997.34;4941844;28;20441;-76
2022/09/23 09:12:13;;;;;;;8.70;7.80;;;;;;;13.06;75.22;101000.75;4929000;29;20103;-76
2022/09/23 09:14:56;;;;;;;10.32;8.05;;;;;;;13.15;72.36;100992.72;4928394;29;20136;-76
2022/09/23 09:17:37;;;;;;;8.80;8.00;;;;;;;13.29;70.44;100992.63;4928935;29;20060;-76
2022/09/23 09:20:20;;;;;;;9.25;8.35;;;;;;;13.41;71.50;100991.59;4926001;29;20036;-76
2022/09/23 09:22:48;;;;;;;9.40;7.50;;;;;;;13.59;70.97;100987.88;4932084;29;20048;-76
2022/09/23 09:25:22;;;;;;;7.40;6.70;;;;;;;13.73;70.37;100990.41;4930087;29;20051;-76
2022/09/23 09:27:48;;;;;;;9.85;7.05;;;;;;;13.71;69.81;100986.88;4928758;29;20499;-76
2022/09/23 09:30:15;;;;;;;8.32;7.53;;;;;;;13.81;69.78;100989.41;4928703;29;20078;-76
2022/09/23 09:32:47;;;;;;;11.57;7.47;;;;;;;13.98;69.47;100986.50;4928969;29;20044;-76
2022/09/23 09:35:36;;;;;;;11.93;8.57;;;;;;;14.07;66.83;100976.69;4936369;29;20090;-76
2022/09/23 09:38:04;;;;;;;8.20;7.32;;;;;;;14.21;68.56;100982.69;4929276;29;20096;-76
2022/09/23 09:40:30;;;;;;;11.45;8.15;;;;;;;14.34;67.44;100978.97;4929377;29;20459;-76
2022/09/23 09:42:56;;;;;;;11.80;9.48;;;;;;;14.44;66.10;100977.94;4928030;29;20051;-76
2022/09/23 09:46:23;;;;;;;7.03;6.20;;;;;;;14.44;62.51;100967.31;4928004;29;20513;-76
2022/09/23 09:48:58;;;;;;;7.47;6.30;;;;;;;14.55;62.41;100967.16;4918852;29;20176;-76
2022/09/23 09:51:26;;;;;;;7.05;6.45;;;;;;;14.62;64.02;100965.31;4918931;29;20063;-76
2022/09/23 09:53:53;;;;;;;8.27;7.47;;;;;;;14.69;63.26;100962.50;4922060;29;20767;-76
2022/09/23 09:56:33;;;;;;;6.65;6.05;;;;;;;14.69;58.35;100956.31;4929436;29;20491;-76
2022/09/23 09:59:07;;;;;;;6.68;6.03;;;;;;;14.75;59.51;100950.91;4928249;29;20096;-76
2022/09/23 10:01:33;;;;;;;8.32;6.28;;;;;;;14.81;60.17;100944.63;4926103;29;20051;-76
2022/09/23 10:04:20;;;;;;;7.53;6.75;;;;;;;14.90;59.76;100945.31;4928596;29;20048;-76
2022/09/23 10:07:04;;;;;;;6.75;6.05;;;;;;;15.04;60.29;100941.56;4925786;29;20423;-76
2022/09/23 10:09:34;;;;;;;6.40;5.90;;;;;;;15.06;57.08;100945.06;4934305;29;20498;-76
2022/09/23 10:12:14;;;;;;;6.32;5.72;;;;;;;15.04;57.98;100937.13;4930969;29;20051;-76
2022/09/23 10:14:41;;;;;;;6.00;5.45;;;;;;;15.23;58.11;100934.13;4929213;29;20039;-75
2022/09/23 10:17:13;;;;;;;7.60;6.85;;;;;;;15.39;57.96;100937.38;4926302;29;20410;-76
2022/09/23 10:19:44;;;;;;;7.28;6.57;;;;;;;15.44;56.51;100936.34;4941995;29;20375;-76
2022/09/23 10:22:19;;;;;;;6.88;6.22;;;;;;;15.56;56.27;100924.59;4931295;29;20027;-75
2022/09/23 10:24:51;;;;;;;7.55;5.60;;;;;;;15.72;56.71;100917.22;4932919;29;20039;-76
2022/09/23 10:27:30;;;;;;;5.53;5.03;;;;;;;15.84;56.14;100914.28;4924150;29;20103;-75
2022/09/23 10:29:58;;;;;;;7.28;6.63;;;;;;;15.94;56.44;100925.59;4926523;29;20044;-76
2022/09/23 10:32:28;;;;;;;8.38;5.88;;;;;;;16.01;53.91;100921.91;4926943;29;20542;-75
2022/09/23 10:35:01;;;;;;;6.50;5.90;;;;;;;15.97;53.98;100920.22;4933243;29;20035;-76
2022/09/23 10:37:34;;;;;;;7.40;5.88;;;;;;;16.12;54.03;100919.00;4926956;29;20035;-75
2022/09/23 10:49:11;;;;;;;6.93;5.90;;;;;;;16.47;52.61;100904.81;4927991;29;20032;-76
2022/09/23 10:51:42;;;;;;;5.75;5.25;;;;;;;16.59;52.35;100906.34;4929423;29;20036;-76
2022/09/23 10:54:51;;;;;;;6.93;6.32;;;;;;;16.64;51.31;100902.63;4931423;29;20046;-76
2022/09/23 10:57:44;;;;;;;7.50;6.32;;;;;;;16.80;51.92;100897.81;4928247;29;20163;-76
2022/09/23 11:00:39;;;;;;;7.25;6.55;;;;;;;16.96;50.72;100894.75;4927717;29;20043;-76
2022/09/23 11:03:26;;;;;;;7.70;5.90;;;;;;;17.06;51.26;100891.78;4931901;29;20063;-74
2022/09/23 11:06:14;;;;;;;7.40;6.80;;;;;;;17.20;51.89;100890.53;4944483;29;20044;-76
2022/09/23 11:09:02;;;;;;;6.97;6.28;;;;;;;17.35;50.87;100884.78;4932527;29;20167;-75
2022/09/23 11:11:52;;;;;;;7.57;6.50;;;;;;;17.43;50.95;100880.09;4929432;29;20047;-76
2022/09/23 11:14:37;;;;;;;7.63;5.97;;;;;;;17.48;49.84;100886.16;4924593;29;20458;-75
2022/09/23 11:17:29;;;;;;;7.53;5.30;;;;;;;17.53;49.46;100878.03;4926241;29;20079;-76
2022/09/23 11:20:16;;;;;;;9.30;6.50;;;;;;;17.58;48.82;100880.53;4926580;29;20054;-76
2022/09/23 11:23:09;;;;;;;6.55;5.95;;;;;;;17.72;48.65;100876.56;4943445;28;20040;-76
2022/09/23 11:26:12;;;;;;;6.90;6.32;;;;;;;18.06;48.71;100866.66;4926961;29;20042;-76
2022/09/23 11:28:52;;;;;;;6.80;6.22;;;;;;;18.23;46.99;100861.63;4928875;29;20067;-76
2022/09/23 11:31:30;;;;;;;6.28;5.68;;;;;;;18.42;46.08;100853.91;4924374;29;20044;-75
2022/09/23 11:34:10;;;;;;;7.68;6.85;;;;;;;18.54;44.67;100856.16;4928402;29;20126;-76
2022/09/23 11:36:51;;;;;;;6.85;6.25;;;;;;;18.80;45.29;100839.25;4927121;29;20040;-75
2022/09/23 11:39:22;;;;;;;7.22;6.10;;;;;;;18.97;45.29;100848.47;4929102;29;20040;-75
2022/09/23 11:41:53;;;;;;;9.33;6.00;;;;;;;19.00;44.78;100840.34;4924189;29;20051;-76
2022/09/23 11:44:41;;;;;;;8.18;7.18;;;;;;;19.07;43.36;100835.63;4925602;29;20031;-75
2022/09/23 11:47:20;;;;;;;7.45;6.75;;;;;;;19.01;42.57;100823.34;4926069;29;20538;-76
2022/09/23 11:49:56;;;;;;;7.18;6.55;;;;;;;18.95;42.02;100824.44;4924527;29;20031;-76
2022/09/23 11:52:25;;;;;;;5.80;5.40;;;;;;;19.14;42.96;100827.31;4929959;29;20047;-76
2022/09/23 11:54:57;;;;;;;6.43;5.82;;;;;;;19.26;41.54;100818.84;4925131;29;20038;-76
2022/09/23 11:57:31;;;;;;;6.97;6.47;;;;;;;19.32;41.99;100820.41;4924584;29;20032;-76